Hauptseite
METAR-TAF:

METAR-TAF

Flughäfen :

Flughafen Sliač

Banská Bystrica, Slowakei

Breite: 48-38-17N, Länge: 019-08-03E, Höhe: 318 m

Beobachtung

Neuester Wetterbericht von vor 13 Minuten, um 17:30 UTC
Wind 7 kt aus Nord/Nordost
Temperatur 28°C
Luftfeuchtigkeit 35%
Luftdruck 1018 hPa
Sichtweite 10 km oder mehr
keine Wolken unter 1500 m und keine Kumulonimbus oder Gewitterwolken

METAR: LZSL 181730Z 03007KT CAVOK 28/11 Q1018

Zeit: 19:43 (17:43 UTC)

Prognose

Neuester Wetterbericht von vor 43 Minuten, um 17:00 UTC
Gültige Prognose vom 18 um 18 UTC bis 19 um 03 UTC
Wind 10 kt aus Nord
Sichtweite 10 km oder mehr
keine Wolken unter 1500 m und keine Kumulonimbus oder Gewitterwolken
Übergehend zu
vom 18 um 20 UTC bis 18 um 22 UTC
Wind 4 kt aus Nord/Nordost

TAF: LZSL 181700Z 1818/1903 01010KT CAVOK BECMG 1820/1822 03004KT

Wetterbeobachtungen und Prognosen von mehr als 4000 Flughäfen (METAR und TAF Bericht).

Die verfügbaren Stationen werden durch gelbe und rote Markierungen auf der Karte dargestellt.

Führen Sie die Maus auf sie, um den Namen der Station zu sehen.

Darauf klicken, um die Beobachtung von Wetterbeobachtungen und Prognosen zu sehen.

Um die Karte zu ändern : klicken Sie auf den grünen Tasten mit einem schwarzen Kreuz Zum Vergrößern, auf den grünen Button mit einem Gedankenstrich zu verkleinern, oder auf die grünen Pfeile für benachbarte Karten.


METAR-TAF: